Time;durP1;ratioP1;P1;durP2;ratioP2;P2;SDS_P1;SDS_P2;PMS_P1;PMS_P2;Temp;Humidity;BMP_temperature;BMP_pressure;BME280_temperature;BME280_humidity;BME280_pressure;Samples;Min_cycle;Max_cycle;Signal;HPM_P1;HPM_P2
2024/03/21 00:02:17;;;;;;;18.90;12.55;;;11.10;99.90;;;;;;21356872;22;1173355;-49
2024/03/21 00:12:18;;;;;;;18.08;11.55;;;11.10;99.90;;;;;;21133463;22;20104;-83
2024/03/21 00:22:19;;;;;;;17.00;11.60;;;11.20;99.90;;;;;;21076349;28;20104;-84
2024/03/21 00:32:21;;;;;;;21.80;14.48;;;11.20;99.90;;;;;;21077186;28;20041;-84
2024/03/21 00:42:23;;;;;;;24.52;15.75;;;11.20;99.90;;;;;;21096806;28;20037;-83
2024/03/21 00:52:24;;;;;;;24.90;17.25;;;11.10;99.90;;;;;;21083609;28;20048;-83
2024/03/21 01:02:28;;;;;;;30.63;18.70;;;11.20;99.90;;;;;;21082334;28;20040;-84
2024/03/21 01:12:29;;;;;;;30.40;21.40;;;11.10;99.90;;;;;;21074225;28;20182;-83
2024/03/21 01:22:31;;;;;;;35.88;23.95;;;11.10;94.70;;;;;;21090210;28;20032;-83
2024/03/21 01:32:36;;;;;;;37.72;25.90;;;11.00;91.20;;;;;;21095730;28;20043;-84
2024/03/21 01:42:39;;;;;;;35.60;24.00;;;11.00;95.80;;;;;;21072249;28;20091;-84
2024/03/21 01:52:42;;;;;;;38.40;24.50;;;11.00;85.30;;;;;;21078956;28;20080;-84
2024/03/21 02:02:45;;;;;;;37.10;24.95;;;11.00;81.80;;;;;;21085927;28;20031;-83
2024/03/21 02:12:46;;;;;;;36.85;21.88;;;11.00;97.90;;;;;;21079206;28;20045;-83
2024/03/21 02:32:53;;;;;;;27.73;16.88;;;10.80;99.90;;;;;;21283735;22;20159;-49
2024/03/21 02:42:54;;;;;;;31.00;17.03;;;10.80;99.90;;;;;;21345245;22;20393;-48
2024/03/21 02:52:54;;;;;;;54.22;29.95;;;10.80;99.90;;;;;;21340560;22;21043;-49
2024/03/21 03:02:56;;;;;;;49.93;27.10;;;10.80;99.90;;;;;;21313348;22;20049;-48
2024/03/21 03:12:56;;;;;;;38.20;23.60;;;10.70;99.90;;;;;;21459767;22;20045;-49
2024/03/21 03:43:11;;;;;;;37.55;22.77;;;10.50;99.90;;;;;;21166014;22;21189;-48
2024/03/21 03:53:12;;;;;;;25.77;16.40;;;10.30;99.90;;;;;;21295532;22;20051;-48
2024/03/21 04:23:42;;;;;;;16.48;11.02;;;10.00;90.70;;;;;;21247567;22;20591;-48
2024/03/21 04:33:43;;;;;;;19.25;11.75;;;9.80;94.70;;;;;;21370895;22;20105;-48
2024/03/21 04:43:44;;;;;;;18.57;12.13;;;9.60;96.50;;;;;;21347581;23;20106;-48
2024/03/21 04:53:44;;;;;;;16.43;9.83;;;9.40;95.50;;;;;;21396840;22;20574;-49
2024/03/21 05:03:46;;;;;;;12.53;8.20;;;9.30;91.90;;;;;;21418973;23;20467;-48
2024/03/21 05:24:10;;;;;;;12.18;6.10;;;9.30;55.40;;;;;;21443391;22;20448;-48
2024/03/21 05:34:11;;;;;;;7.57;4.43;;;9.20;57.00;;;;;;21352131;22;20052;-48
2024/03/21 05:44:11;;;;;;;7.75;3.30;;;9.20;47.30;;;;;;21381184;22;20095;-48
2024/03/21 06:04:17;;;;;;;6.78;2.10;;;9.10;36.50;;;;;;20924630;23;20469;-82
2024/03/21 06:14:18;;;;;;;5.18;1.50;;;9.20;29.80;;;;;;20932289;28;20052;-82
2024/03/21 06:24:20;;;;;;;7.88;1.50;;;9.20;21.60;;;;;;21036240;28;20098;-83
2024/03/21 06:34:23;;;;;;;4.07;1.38;;;9.10;22.10;;;;;;20961518;28;20040;-83
2024/03/21 06:44:29;;;;;;;9.07;2.00;;;9.00;22.00;;;;;;21055323;28;20044;-83
2024/03/21 06:54:32;;;;;;;5.97;1.60;;;8.90;24.30;;;;;;21112196;28;20109;-83
2024/03/21 07:04:34;;;;;;;4.50;1.98;;;8.90;19.10;;;;;;21102772;28;20039;-82
2024/03/21 07:14:41;;;;;;;4.38;1.42;;;9.10;13.90;;;;;;21109741;28;20048;-83
2024/03/21 07:24:43;;;;;;;;;;;9.10;8.70;;;;;;21077990;28;20043;-83
2024/03/21 07:35:03;;;;;;;9.63;2.17;;;8.90;6.60;;;;;;21141434;28;19912;-82
2024/03/21 07:45:11;;;;;;;6.38;2.10;;;9.00;6.50;;;;;;21123855;28;20048;-82
2024/03/21 07:55:12;;;;;;;6.85;1.90;;;8.90;8.40;;;;;;21034896;28;20041;-83
2024/03/21 08:05:18;;;;;;;6.50;1.98;;;9.00;11.50;;;;;;21011241;28;20052;-82
2024/03/21 08:15:18;;;;;;;7.68;1.52;;;9.10;10.60;;;;;;21000846;22;20052;-48
2024/03/21 08:35:21;;;;;;;5.95;1.55;;;9.20;6.00;;;;;;21306057;22;20041;-49
2024/03/21 08:45:23;;;;;;;8.07;1.90;;;9.40;3.40;;;;;;21200271;22;20065;-48
2024/03/21 08:55:23;;;;;;;6.05;1.90;;;9.30;3.20;;;;;;21310298;22;20483;-51
2024/03/21 09:05:24;;;;;;;7.20;1.92;;;9.40;1.90;;;;;;21359865;22;20049;-49
2024/03/21 09:15:24;;;;;;;4.68;2.10;;;9.50;1.00;;;;;;21220910;22;20374;-49
2024/03/21 09:25:25;;;;;;;7.85;2.30;;;9.70;1.00;;;;;;20897188;22;22762;-49
2024/03/21 09:35:26;;;;;;;4.37;1.97;;;10.00;1.00;;;;;;21663498;22;20078;-50
2024/03/21 09:45:29;;;;;;;6.97;3.42;;;10.10;1.00;;;;;;21201221;23;20531;-49
2024/03/21 09:55:30;;;;;;;8.30;3.90;;;10.20;1.00;;;;;;21220152;22;20133;-49
2024/03/21 10:05:31;;;;;;;8.33;5.03;;;10.40;1.00;;;;;;21126314;23;20629;-48
2024/03/21 10:25:55;;;;;;;12.07;7.30;;;10.50;1.00;;;;;;21302761;22;20043;-49
2024/03/21 10:35:56;;;;;;;13.38;7.68;;;10.60;1.00;;;;;;21444234;22;20084;-49
2024/03/21 10:45:57;;;;;;;9.15;6.13;;;10.60;1.00;;;;;;21334142;22;20064;-54
2024/03/21 10:55:58;;;;;;;9.07;6.43;;;10.70;1.00;;;;;;21389375;23;20093;-48
2024/03/21 11:05:59;;;;;;;16.33;12.10;;;10.70;1.00;;;;;;21463498;23;20125;-49
2024/03/21 11:15:59;;;;;;;19.83;16.80;;;10.50;1.00;;;;;;20896832;23;20469;-48
2024/03/21 11:26:00;;;;;;;17.30;12.40;;;10.60;1.00;;;;;;21236485;23;20098;-49
2024/03/21 11:36:01;;;;;;;11.52;8.30;;;10.50;1.00;;;;;;21008831;22;20485;-48
2024/03/21 11:46:02;;;;;;;3.87;2.50;;;10.50;1.00;;;;;;21304411;22;20048;-48
2024/03/21 12:16:19;;;;;;;4.50;1.65;;;10.60;1.00;;;;;;20949713;23;20141;-49
2024/03/21 12:46:28;;;;;;;4.90;2.22;;;10.90;1.00;;;;;;20908074;22;20052;-84
2024/03/21 12:56:29;;;;;;;5.05;2.75;;;10.90;1.00;;;;;;20914449;28;20063;-85
2024/03/21 13:06:31;;;;;;;7.93;3.40;;;10.70;1.00;;;;;;20919458;28;20037;-84
2024/03/21 13:27:30;;;;;;;7.75;4.20;;;10.40;1.00;;;;;;20675326;28;20027;-84
2024/03/21 13:38:26;;;;;;;5.93;3.67;;;10.30;1.00;;;;;;20757368;28;20080;-84
2024/03/21 13:48:44;;;;;;;5.90;3.33;;;10.30;1.00;;;;;;20658714;28;20070;-83
2024/03/21 13:58:50;;;;;;;5.88;2.88;;;10.40;1.00;;;;;;20750218;28;20042;-84
2024/03/21 14:08:55;;;;;;;5.65;3.20;;;10.50;1.00;;;;;;21033245;23;20049;-48
2024/03/21 14:18:57;;;;;;;6.87;3.60;;;10.60;1.00;;;;;;21297492;22;20526;-48
2024/03/21 14:39:18;;;;;;;10.23;5.78;;;10.80;1.00;;;;;;21327306;23;20041;-49
2024/03/21 14:49:21;;;;;;;10.57;6.78;;;10.80;1.00;;;;;;21172874;23;20534;-48
2024/03/21 14:59:21;;;;;;;13.13;8.45;;;10.80;1.00;;;;;;21175562;23;20137;-48
2024/03/21 15:09:22;;;;;;;22.57;15.17;;;10.80;1.00;;;;;;21210072;23;20456;-49
2024/03/21 15:19:23;;;;;;;18.15;13.73;;;10.90;1.00;;;;;;21264205;23;20037;-49
2024/03/21 15:40:12;;;;;;;23.80;18.45;;;10.90;1.00;;;;;;20708272;28;20110;-86
2024/03/21 15:50:14;;;;;;;21.90;17.00;;;10.90;1.00;;;;;;20722279;28;20083;-87
2024/03/21 16:00:19;;;;;;;20.52;15.20;;;10.90;1.00;;;;;;20686790;28;20057;-87
2024/03/21 16:10:35;;;;;;;15.23;12.02;;;11.00;1.00;;;;;;20752915;28;20038;-87
2024/03/21 16:21:16;;;;;;;45.03;20.45;;;11.00;1.00;;;;;;20716718;28;20054;-87
2024/03/21 16:31:19;;;;;;;14.13;9.52;;;10.90;1.00;;;;;;20891807;28;20131;-86
2024/03/21 16:41:22;;;;;;;15.57;9.88;;;10.80;1.00;;;;;;21057822;22;20059;-50
2024/03/21 16:51:25;;;;;;;19.77;11.82;;;10.90;1.00;;;;;;21354338;23;20668;-49
2024/03/21 17:01:27;;;;;;;24.70;13.20;;;10.80;1.00;;;;;;21090694;23;20048;-87
2024/03/21 17:11:33;;;;;;;23.15;11.43;;;10.80;1.00;;;;;;20964472;28;20054;-87
2024/03/21 17:21:34;;;;;;;48.53;19.58;;;10.80;1.00;;;;;;20981425;28;20037;-86
2024/03/21 17:31:36;;;;;;;12.75;7.57;;;10.70;1.00;;;;;;20953521;22;20049;-49
2024/03/21 18:03:06;;;;;;;11.65;7.65;;;10.70;1.00;;;;;;20622640;28;20039;-87
2024/03/21 18:13:07;;;;;;;10.25;6.82;;;10.50;1.00;;;;;;20616756;28;20047;-84
2024/03/21 18:23:12;;;;;;;9.65;6.65;;;10.60;1.00;;;;;;20618794;28;20094;-84
2024/03/21 18:33:12;;;;;;;11.43;8.02;;;10.50;1.80;;;;;;20782540;28;20037;-84
2024/03/21 18:53:34;;;;;;;15.20;9.55;;;10.60;5.80;;;;;;20906615;23;20057;-85
2024/03/21 19:13:42;;;;;;;19.23;13.07;;;10.50;9.70;;;;;;21271371;23;20120;-49
2024/03/21 19:34:57;;;;;;;23.45;15.25;;;10.50;15.30;;;;;;20884778;23;20045;-49
2024/03/21 19:55:00;;;;;;;20.75;14.00;;;10.60;15.30;;;;;;21247363;23;20493;-48
2024/03/21 20:05:01;;;;;;;22.70;13.17;;;10.60;18.00;;;;;;21343128;22;20041;-48
2024/03/21 20:15:02;;;;;;;20.60;14.13;;;10.50;19.20;;;;;;21431564;22;20491;-48
2024/03/21 20:35:13;;;;;;;23.27;16.00;;;10.40;25.20;;;;;;21507062;22;21202;-49
2024/03/21 20:45:15;;;;;;;24.45;16.52;;;10.40;33.30;;;;;;21405826;22;20045;-48
2024/03/21 20:55:16;;;;;;;29.52;19.10;;;10.40;37.70;;;;;;21224350;22;20060;-48
2024/03/21 21:05:17;;;;;;;28.48;18.52;;;10.50;39.50;;;;;;21271933;23;20527;-48
2024/03/21 21:15:18;;;;;;;28.67;18.95;;;10.50;42.40;;;;;;21274591;22;20046;-48
2024/03/21 21:25:51;;;;;;;32.47;20.83;;;10.50;43.10;;;;;;21134438;23;20045;-86
2024/03/21 22:16:33;;;;;;;37.43;23.67;;;10.70;47.80;;;;;;21343076;22;20025;-49
2024/03/21 22:26:34;;;;;;;35.17;23.13;;;10.70;59.60;;;;;;21341061;22;20522;-49
2024/03/21 22:36:35;;;;;;;33.20;22.30;;;10.80;69.20;;;;;;21406092;22;20231;-48
2024/03/21 22:46:36;;;;;;;40.58;24.23;;;10.90;71.60;;;;;;21303886;22;20053;-48
2024/03/21 22:56:36;;;;;;;39.93;24.47;;;10.80;90.80;;;;;;21305602;22;20042;-49
2024/03/21 23:06:38;;;;;;;42.83;25.45;;;10.90;96.00;;;;;;21094529;23;20047;-48
2024/03/21 23:16:38;;;;;;;43.90;26.10;;;10.90;99.90;;;;;;21166149;22;20141;-48
2024/03/21 23:26:39;;;;;;;41.00;26.15;;;10.90;99.90;;;;;;21243711;22;20383;-48
2024/03/21 23:36:40;;;;;;;44.33;27.20;;;11.00;99.90;;;;;;21191459;23;20045;-48
2024/03/21 23:46:40;;;;;;;48.78;29.60;;;11.20;99.90;;;;;;21309709;22;20513;-49
